Time;durP1;ratioP1;P1;durP2;ratioP2;P2;SDS_P1;SDS_P2;PMS_P1;PMS_P2;Temp;Humidity;BMP_temperature;BMP_pressure;BME280_temperature;BME280_humidity;BME280_pressure;Samples;Min_cycle;Max_cycle;Signal;HPM_P1;HPM_P2
2021/06/10 00:01:39;;;;;;;2.00;1.80;;;;;;;29.47;38.03;97081.44;4974157;28;20038;-35
2021/06/10 00:04:04;;;;;;;3.65;2.33;;;;;;;29.46;38.04;97074.47;4951299;28;20510;-34
2021/06/10 00:06:29;;;;;;;2.45;2.00;;;;;;;29.46;37.85;97077.09;4948789;28;20117;-35
2021/06/10 00:08:55;;;;;;;2.70;1.92;;;;;;;29.46;38.16;97079.75;4945313;28;20489;-32
2021/06/10 00:11:20;;;;;;;2.45;2.00;;;;;;;29.46;37.78;97085.03;4945625;28;20035;-35
2021/06/10 00:13:45;;;;;;;2.20;1.98;;;;;;;29.46;37.98;97073.59;4951995;28;20724;-35
2021/06/10 00:16:11;;;;;;;2.65;1.73;;;;;;;29.46;38.07;97078.88;4976217;28;20038;-34
2021/06/10 00:18:36;;;;;;;1.90;1.80;;;;;;;29.46;37.80;97085.03;4946837;28;20038;-34
2021/06/10 00:21:02;;;;;;;2.55;1.95;;;;;;;29.46;37.96;97084.16;4949254;28;20105;-33
2021/06/10 00:23:27;;;;;;;3.30;1.70;;;;;;;29.45;38.10;97085.94;4950652;28;20035;-33
2021/06/10 00:25:53;;;;;;;3.25;1.90;;;;;;;29.45;37.87;97091.22;4951877;28;20947;-33
2021/06/10 00:28:18;;;;;;;2.05;1.92;;;;;;;29.46;38.09;97084.16;4948760;28;20655;-34
2021/06/10 00:30:43;;;;;;;2.47;1.85;;;;;;;29.46;37.89;97085.03;4947449;28;20034;-37
2021/06/10 00:33:10;;;;;;;2.00;1.73;;;;;;;29.45;37.87;97075.38;4945565;28;20113;-34
2021/06/10 00:35:35;;;;;;;2.20;2.00;;;;;;;29.45;37.93;97078.03;4948767;28;20119;-36
2021/06/10 00:38:01;;;;;;;1.77;1.63;;;;;;;29.45;37.76;97083.31;4948545;28;20762;-38
2021/06/10 00:40:27;;;;;;;2.08;1.90;;;;;;;29.45;37.98;97078.03;4941307;28;20089;-33
2021/06/10 00:42:52;;;;;;;2.00;1.80;;;;;;;29.45;38.18;97077.19;4950233;28;20660;-35
2021/06/10 00:45:20;;;;;;;2.70;1.73;;;;;;;29.45;37.78;97072.75;4944209;28;20039;-35
2021/06/10 00:47:46;;;;;;;7.88;2.03;;;;;;;29.45;38.13;97078.03;4944840;28;20089;-35
2021/06/10 00:50:12;;;;;;;2.67;1.67;;;;;;;29.45;38.18;97077.19;4947130;28;20034;-34
2021/06/10 00:52:38;;;;;;;2.15;1.40;;;;;;;29.44;37.86;97071.06;4950240;28;20472;-28
2021/06/10 00:55:04;;;;;;;2.42;1.55;;;;;;;29.44;37.97;97075.47;4949757;28;20081;-34
2021/06/10 00:57:32;;;;;;;2.72;1.73;;;;;;;29.44;38.15;97081.63;4979479;28;20039;-35
2021/06/10 00:59:57;;;;;;;1.90;1.75;;;;;;;29.43;38.11;97087.84;4943476;28;20061;-37
2021/06/10 01:02:23;;;;;;;2.67;1.85;;;;;;;29.44;38.15;97083.41;4948988;28;20054;-33
2021/06/10 01:04:48;;;;;;;1.80;1.48;;;;;;;29.43;37.98;97085.22;4947873;28;20027;-35
2021/06/10 01:07:42;;;;;;;2.00;1.70;;;;;;;29.44;38.15;97081.63;4946734;28;20699;-34
2021/06/10 01:10:29;;;;;;;1.70;1.60;;;;;;;29.44;38.09;97086.03;4946698;28;20031;-32
2021/06/10 01:12:59;;;;;;;1.73;1.63;;;;;;;29.42;37.98;97083.53;4972557;28;20027;-35
2021/06/10 01:15:28;;;;;;;1.67;1.45;;;;;;;29.42;38.13;97088.81;4979436;28;20452;-36
2021/06/10 01:17:53;;;;;;;2.35;1.70;;;;;;;29.41;37.87;97080.97;4959110;28;20031;-33
2021/06/10 01:20:21;;;;;;;2.53;1.58;;;;;;;29.42;37.98;97088.81;4973909;28;20163;-33
2021/06/10 01:22:59;;;;;;;1.65;1.45;;;;;;;29.41;38.03;97087.09;4946975;28;20035;-33
2021/06/10 01:25:24;;;;;;;1.92;1.63;;;;;;;29.41;38.01;97081.81;4946877;28;20058;-34
2021/06/10 01:27:51;;;;;;;1.50;1.40;;;;;;;29.43;38.17;97085.22;4944251;28;20125;-34
2021/06/10 01:30:21;;;;;;;1.67;1.58;;;;;;;29.42;38.02;97086.16;4978326;28;20034;-34
2021/06/10 01:32:55;;;;;;;1.65;1.50;;;;;;;29.41;38.03;97092.38;4948300;28;20068;-35
2021/06/10 01:35:22;;;;;;;1.75;1.60;;;;;;;29.41;38.17;97084.44;4960528;28;20466;-33
2021/06/10 01:37:47;;;;;;;1.58;1.48;;;;;;;29.41;38.17;97087.09;4958717;28;20110;-36
2021/06/10 01:40:12;;;;;;;1.63;1.52;;;;;;;29.41;37.76;97086.25;4975976;28;20027;-34
2021/06/10 01:42:38;;;;;;;2.33;1.50;;;;;;;29.42;38.06;97083.53;4961419;28;20511;-37
2021/06/10 01:45:05;;;;;;;1.40;1.30;;;;;;;29.41;37.93;97081.81;4965388;28;20185;-36
2021/06/10 01:47:31;;;;;;;1.92;1.55;;;;;;;29.40;38.13;97085.41;4945831;28;20039;-31
2021/06/10 01:49:56;;;;;;;2.20;1.48;;;;;;;29.38;38.03;97079.38;4951141;28;20101;-36
2021/06/10 01:52:22;;;;;;;2.97;1.30;;;;;;;29.40;38.05;97074.84;4975451;28;21316;-30
2021/06/10 01:54:47;;;;;;;2.72;1.30;;;;;;;29.39;37.89;97067.88;4974323;28;20038;-33
2021/06/10 01:57:18;;;;;;;1.60;1.42;;;;;;;29.39;38.02;97067.88;4962964;28;20709;-34
2021/06/10 01:59:43;;;;;;;1.52;1.40;;;;;;;29.39;38.08;97067.88;4976097;28;20030;-36
2021/06/10 02:02:09;;;;;;;4.45;1.80;;;;;;;29.39;37.98;97070.50;4945172;28;20037;-34
2021/06/10 02:04:34;;;;;;;5.57;2.05;;;;;;;29.40;37.76;97069.56;4976510;28;20034;-34
2021/06/10 02:07:03;;;;;;;1.92;1.40;;;;;;;29.39;37.94;97067.88;4946622;28;20127;-30
2021/06/10 02:09:28;;;;;;;1.83;1.30;;;;;;;29.38;38.11;97060.91;4978932;28;20035;-33
2021/06/10 02:11:54;;;;;;;3.05;1.35;;;;;;;29.39;38.12;97069.66;4941473;28;20019;-35
2021/06/10 02:14:20;;;;;;;1.60;1.50;;;;;;;29.37;38.26;97069.75;4971336;28;20081;-30
2021/06/10 02:16:46;;;;;;;2.28;1.20;;;;;;;29.38;38.11;97065.31;4966875;28;20568;-33
2021/06/10 02:19:11;;;;;;;1.20;1.10;;;;;;;29.38;38.04;97074.09;4955900;28;20439;-37
2021/06/10 02:21:37;;;;;;;1.30;1.17;;;;;;;29.38;37.91;97074.09;4958984;28;20398;-35
2021/06/10 02:24:03;;;;;;;1.90;1.50;;;;;;;29.37;38.12;97072.38;4946625;28;20481;-30
2021/06/10 02:26:28;;;;;;;1.77;1.63;;;;;;;29.39;38.08;97065.25;4961923;28;20560;-33
2021/06/10 02:28:54;;;;;;;1.90;1.42;;;;;;;29.37;37.92;97064.47;4948829;28;20042;-32
2021/06/10 02:31:19;;;;;;;1.45;1.35;;;;;;;29.38;37.96;97062.69;4945617;28;20181;-36
2021/06/10 02:33:44;;;;;;;1.77;1.50;;;;;;;29.37;38.13;97059.19;4945379;28;20031;-33
2021/06/10 02:36:12;;;;;;;2.03;1.30;;;;;;;29.38;37.98;97060.03;4959841;28;20093;-32
2021/06/10 02:38:39;;;;;;;1.67;1.55;;;;;;;29.37;37.91;97064.47;4990539;28;20034;-35
2021/06/10 02:41:05;;;;;;;3.85;1.25;;;;;;;29.38;37.94;97060.03;4963032;28;20034;-35
2021/06/10 02:43:31;;;;;;;1.30;1.20;;;;;;;29.37;37.88;97061.81;4957742;28;20394;-31
2021/06/10 02:45:56;;;;;;;1.45;1.30;;;;;;;29.36;37.81;97062.78;4975063;28;20063;-33
2021/06/10 02:48:21;;;;;;;2.53;1.45;;;;;;;29.36;38.11;97060.13;4978984;28;20030;-34
2021/06/10 02:50:47;;;;;;;1.88;1.48;;;;;;;29.36;38.03;97060.13;4979577;28;20027;-39
2021/06/10 02:53:15;;;;;;;1.35;1.25;;;;;;;29.35;38.15;97061.09;4948230;28;20054;-37
2021/06/10 02:55:41;;;;;;;1.50;1.40;;;;;;;29.36;38.15;97057.50;4957676;28;20920;-34
2021/06/10 02:58:06;;;;;;;1.65;1.48;;;;;;;29.36;37.80;97059.31;4944658;28;20059;-37
2021/06/10 03:00:32;;;;;;;1.40;1.30;;;;;;;29.36;37.83;97056.66;4945246;28;20316;-36
2021/06/10 03:02:59;;;;;;;1.45;1.30;;;;;;;29.34;38.03;97049.69;4946061;28;20062;-34
2021/06/10 03:05:25;;;;;;;1.40;1.30;;;;;;;29.34;37.82;97052.31;4974951;28;20062;-32
2021/06/10 03:07:51;;;;;;;1.55;1.13;;;;;;;29.33;38.11;97048.00;4945035;28;20505;-31
2021/06/10 03:10:16;;;;;;;3.35;1.50;;;;;;;29.33;38.12;97052.44;4943205;28;20038;-36
2021/06/10 03:12:42;;;;;;;1.95;1.35;;;;;;;29.34;37.94;97051.50;4960839;28;20030;-39
2021/06/10 03:15:09;;;;;;;1.50;1.25;;;;;;;29.33;37.86;97055.91;4961231;28;20310;-39
2021/06/10 03:17:34;;;;;;;3.35;1.27;;;;;;;29.33;38.23;97048.00;4947170;28;20058;-35
2021/06/10 03:20:00;;;;;;;1.80;1.52;;;;;;;29.33;37.83;97050.63;4963519;28;20796;-33
2021/06/10 03:22:25;;;;;;;3.33;1.48;;;;;;;29.32;38.18;97056.84;4945407;28;20059;-33
2021/06/10 03:24:51;;;;;;;1.30;1.20;;;;;;;29.33;38.00;97047.16;4943799;28;20118;-34
2021/06/10 03:27:16;;;;;;;2.08;1.30;;;;;;;29.32;37.92;97051.59;4960839;28;20042;-33
2021/06/10 03:29:41;;;;;;;2.30;1.45;;;;;;;29.32;38.14;97051.59;4945466;28;20038;-35
2021/06/10 03:32:07;;;;;;;2.50;1.13;;;;;;;29.32;38.01;97050.72;4949409;28;20030;-35
2021/06/10 03:34:33;;;;;;;1.15;1.08;;;;;;;29.32;38.10;97045.44;4965922;28;20038;-34
2021/06/10 03:36:59;;;;;;;1.98;1.10;;;;;;;29.30;37.85;97053.47;4946613;28;20607;-32
2021/06/10 03:39:25;;;;;;;2.83;1.20;;;;;;;29.30;37.84;97050.00;4962316;28;20041;-30
2021/06/10 03:41:54;;;;;;;1.30;1.20;;;;;;;29.30;38.07;97052.63;4971580;28;20043;-33
2021/06/10 03:44:20;;;;;;;1.20;1.10;;;;;;;29.30;38.08;97047.34;4946975;28;20030;-33
2021/06/10 03:46:45;;;;;;;1.35;1.00;;;;;;;29.30;37.85;97053.47;4965794;28;20046;-33
2021/06/10 03:49:11;;;;;;;1.77;0.90;;;;;;;29.30;37.87;97058.72;4951202;28;20042;-36
2021/06/10 03:51:37;;;;;;;1.40;1.20;;;;;;;29.30;38.00;97052.63;4979331;28;20041;-32
2021/06/10 03:54:02;;;;;;;1.73;0.93;;;;;;;29.31;37.89;97054.31;4945034;28;20019;-31
2021/06/10 03:56:28;;;;;;;1.58;1.23;;;;;;;29.29;37.90;97057.03;4964776;28;20481;-32
2021/06/10 03:58:53;;;;;;;2.70;1.00;;;;;;;29.30;37.79;97058.72;4950321;28;20034;-30
2021/06/10 04:01:18;;;;;;;1.33;1.23;;;;;;;29.29;37.87;97053.59;4946457;28;20038;-36
2021/06/10 04:03:44;;;;;;;0.90;0.90;;;;;;;29.28;38.18;97050.09;4948284;28;20035;-32
2021/06/10 04:06:11;;;;;;;1.23;1.13;;;;;;;29.28;37.91;97051.84;4951155;28;21178;-34
2021/06/10 04:08:37;;;;;;;2.35;1.30;;;;;;;29.29;37.99;97059.69;4947031;28;20130;-35
2021/06/10 04:11:02;;;;;;;1.25;1.00;;;;;;;29.29;37.66;97057.03;4948315;28;20623;-36
2021/06/10 04:13:27;;;;;;;0.85;0.85;;;;;;;29.29;37.84;97050.94;4948857;28;20022;-37
2021/06/10 04:15:53;;;;;;;2.88;1.15;;;;;;;29.28;37.85;97054.50;4946719;28;20039;-35
2021/06/10 04:18:19;;;;;;;1.83;1.23;;;;;;;29.28;37.93;97049.22;4948180;28;20566;-34
2021/06/10 04:20:45;;;;;;;1.33;1.20;;;;;;;29.27;38.08;97047.53;4978777;28;20101;-32
2021/06/10 04:23:11;;;;;;;0.95;0.95;;;;;;;29.28;37.98;97049.22;4980494;28;20031;-34
2021/06/10 04:25:36;;;;;;;1.83;1.10;;;;;;;29.27;38.00;97048.38;4952353;28;20034;-32
2021/06/10 04:28:02;;;;;;;1.00;0.88;;;;;;;29.28;38.04;97051.84;4950467;28;20039;-32
2021/06/10 04:30:27;;;;;;;1.30;1.20;;;;;;;29.27;37.93;97048.38;4946895;28;20062;-34
2021/06/10 04:32:52;;;;;;;1.35;1.25;;;;;;;29.28;37.77;97054.50;4944521;28;20069;-33
2021/06/10 04:35:18;;;;;;;1.25;1.10;;;;;;;29.27;37.89;97052.81;4949627;28;20031;-33
2021/06/10 04:37:43;;;;;;;1.10;1.00;;;;;;;29.27;37.94;97047.53;4944980;28;20031;-35
2021/06/10 04:40:09;;;;;;;1.30;1.20;;;;;;;29.28;37.85;97049.22;4942391;28;20038;-33
2021/06/10 04:42:35;;;;;;;1.13;0.93;;;;;;;29.28;37.99;97057.13;4949033;28;20042;-34
2021/06/10 04:45:00;;;;;;;1.30;1.00;;;;;;;29.28;37.93;97054.50;4951035;28;20211;-36
2021/06/10 04:47:25;;;;;;;0.90;0.90;;;;;;;29.27;38.04;97048.38;4946626;28;20518;-34
2021/06/10 04:49:51;;;;;;;1.67;0.98;;;;;;;29.27;38.07;97052.81;4949541;28;20553;-34
2021/06/10 04:52:16;;;;;;;1.63;1.02;;;;;;;29.28;38.10;97051.84;4945010;28;20031;-37
2021/06/10 04:54:42;;;;;;;1.02;0.93;;;;;;;29.27;37.82;97058.94;4947187;28;20031;-38
2021/06/10 04:57:07;;;;;;;1.65;0.80;;;;;;;29.28;38.13;97065.06;4947708;28;20493;-31
2021/06/10 04:59:32;;;;;;;0.80;0.80;;;;;;;29.27;38.19;97068.66;4950160;28;20830;-31
2021/06/10 05:01:58;;;;;;;1.42;0.98;;;;;;;29.25;37.87;97060.00;4944592;28;20031;-34
2021/06/10 05:04:23;;;;;;;2.60;1.00;;;;;;;29.27;38.22;97058.94;4978745;28;20081;-31
2021/06/10 05:06:50;;;;;;;1.10;0.80;;;;;;;29.26;37.97;97057.25;4951213;28;20564;-35
2021/06/10 05:09:15;;;;;;;1.45;0.70;;;;;;;29.28;38.21;97065.06;4941995;28;20118;-33
2021/06/10 05:11:41;;;;;;;0.75;0.75;;;;;;;29.28;38.10;97062.41;4948659;28;20349;-36
2021/06/10 05:14:06;;;;;;;0.60;0.60;;;;;;;29.27;37.99;97060.72;4948163;28;20038;-35
2021/06/10 05:16:32;;;;;;;0.65;0.65;;;;;;;29.28;38.04;97059.78;4977423;28;20127;-32
2021/06/10 05:18:57;;;;;;;1.42;0.80;;;;;;;29.28;37.95;97065.91;4945946;28;20035;-34
2021/06/10 05:21:23;;;;;;;1.02;0.82;;;;;;;29.28;38.01;97065.06;4948685;28;20398;-34
2021/06/10 05:23:48;;;;;;;2.60;1.02;;;;;;;29.28;38.02;97062.41;4946126;28;20501;-35
2021/06/10 05:26:14;;;;;;;0.68;0.68;;;;;;;29.28;37.85;97055.34;4948934;28;20022;-32
2021/06/10 05:28:39;;;;;;;0.80;0.80;;;;;;;29.28;38.08;97057.13;4950520;28;20042;-34
2021/06/10 05:31:06;;;;;;;0.63;0.63;;;;;;;29.29;38.04;97061.50;4947968;28;20026;-35
2021/06/10 05:33:32;;;;;;;1.10;0.85;;;;;;;29.29;37.96;97056.22;4945962;28;20035;-34
2021/06/10 05:35:57;;;;;;;1.15;0.80;;;;;;;29.29;38.18;97062.31;4947566;28;20378;-35
2021/06/10 05:38:22;;;;;;;1.33;0.88;;;;;;;29.29;37.98;97049.13;4976624;28;20030;-34
2021/06/10 05:40:48;;;;;;;1.00;0.90;;;;;;;29.30;37.91;97052.63;4950951;28;20034;-32
2021/06/10 05:43:13;;;;;;;0.82;0.82;;;;;;;29.29;38.09;97051.75;4948866;28;20590;-34
2021/06/10 05:45:39;;;;;;;1.00;0.88;;;;;;;29.30;37.96;97064.00;4946181;28;20051;-39
2021/06/10 05:48:06;;;;;;;2.00;1.00;;;;;;;29.29;38.12;97066.78;4947799;28;20430;-39
2021/06/10 05:50:31;;;;;;;0.70;0.70;;;;;;;29.30;38.36;97063.19;4946113;28;20449;-34
2021/06/10 05:52:57;;;;;;;0.88;0.88;;;;;;;29.30;38.26;97057.91;4948142;28;20032;-36
2021/06/10 05:55:22;;;;;;;0.70;0.70;;;;;;;29.30;38.11;97063.19;4943618;28;20031;-33
2021/06/10 05:57:47;;;;;;;0.80;0.80;;;;;;;29.31;38.11;97070.16;4944020;28;20042;-34
2021/06/10 06:00:15;;;;;;;1.17;0.80;;;;;;;29.30;38.13;97063.19;4945786;28;20514;-32
2021/06/10 06:02:40;;;;;;;1.08;0.60;;;;;;;29.29;37.98;97067.59;4941296;28;20061;-30
2021/06/10 06:05:06;;;;;;;0.60;0.60;;;;;;;29.30;38.02;97076.38;4955202;28;20025;-34
2021/06/10 06:07:31;;;;;;;0.80;0.73;;;;;;;29.29;38.09;97072.06;4971429;28;20121;-34
2021/06/10 06:09:57;;;;;;;0.50;0.50;;;;;;;29.29;38.01;97072.06;4947592;28;20726;-35
2021/06/10 06:12:23;;;;;;;0.90;0.70;;;;;;;29.28;38.25;97065.06;4947541;28;20701;-34
2021/06/10 06:14:48;;;;;;;0.80;0.80;;;;;;;29.29;38.16;97069.41;4978960;28;20038;-34
2021/06/10 06:17:15;;;;;;;1.75;0.50;;;;;;;29.29;38.15;97072.06;4942803;28;20035;-33
2021/06/10 06:19:41;;;;;;;0.85;0.80;;;;;;;29.28;38.08;97070.34;4960851;28;20485;-33
2021/06/10 06:22:07;;;;;;;0.63;0.50;;;;;;;29.28;38.25;97072.97;4942634;28;20038;-32
2021/06/10 06:24:32;;;;;;;0.95;0.80;;;;;;;29.27;38.09;97069.50;4946601;28;20046;-35
2021/06/10 06:26:58;;;;;;;0.90;0.70;;;;;;;29.28;37.90;97075.63;4946331;28;20186;-36
2021/06/10 06:29:24;;;;;;;0.80;0.52;;;;;;;29.28;37.89;97075.63;4945458;28;20186;-34
2021/06/10 06:31:49;;;;;;;5.93;1.70;;;;;;;29.30;38.16;97081.66;4944663;28;20043;-34
2021/06/10 06:34:15;;;;;;;4.65;1.30;;;;;;;29.29;38.19;97072.06;4979771;28;20106;-28
2021/06/10 06:36:43;;;;;;;2.50;1.25;;;;;;;29.32;38.42;97077.13;4945590;28;20030;-33
2021/06/10 06:39:08;;;;;;;1.05;0.90;;;;;;;29.31;38.32;97075.44;4949084;28;20039;-30
2021/06/10 06:41:35;;;;;;;1.35;1.10;;;;;;;29.32;38.03;97074.47;4941971;28;20038;-34
2021/06/10 06:44:01;;;;;;;8.88;1.40;;;;;;;29.33;37.95;97074.38;4942866;28;20722;-33
2021/06/10 06:46:26;;;;;;;1.85;1.30;;;;;;;29.34;38.02;97080.53;4955826;28;20060;-32
2021/06/10 06:48:52;;;;;;;5.88;1.40;;;;;;;29.34;37.86;97084.00;4945129;28;20561;-31
2021/06/10 06:51:17;;;;;;;4.97;1.15;;;;;;;29.36;38.04;97078.63;4944474;28;20401;-32
2021/06/10 06:53:43;;;;;;;6.45;1.48;;;;;;;29.37;38.05;97082.13;4943035;28;20030;-33
2021/06/10 06:56:08;;;;;;;3.38;1.45;;;;;;;29.37;37.88;97080.31;4944922;28;20030;-29
2021/06/10 06:58:33;;;;;;;2.90;1.38;;;;;;;29.39;38.04;97080.22;4944215;28;20997;-36
2021/06/10 07:00:59;;;;;;;3.17;1.67;;;;;;;29.38;38.01;97082.03;4942908;28;20027;-34
2021/06/10 07:03:24;;;;;;;1.80;1.35;;;;;;;29.40;37.69;97088.03;4944537;28;20375;-34
2021/06/10 07:05:52;;;;;;;3.70;1.90;;;;;;;29.41;38.03;97089.72;4949725;28;20055;-35
2021/06/10 07:08:20;;;;;;;2.85;1.52;;;;;;;29.43;37.73;97094.91;4941345;28;20391;-37
2021/06/10 07:10:45;;;;;;;6.30;1.58;;;;;;;29.43;37.88;97090.50;4946288;28;20406;-36
2021/06/10 07:13:11;;;;;;;4.70;1.48;;;;;;;29.43;37.99;97087.84;4946503;28;20042;-34
2021/06/10 07:15:38;;;;;;;5.72;1.65;;;;;;;29.45;37.95;97093.03;4946437;28;20046;-36
2021/06/10 07:18:03;;;;;;;3.08;1.60;;;;;;;29.46;37.88;97089.44;4944981;28;20070;-34
2021/06/10 07:20:28;;;;;;;6.35;2.00;;;;;;;29.46;37.82;97092.94;4946427;28;20058;-35
2021/06/10 07:22:54;;;;;;;5.00;1.67;;;;;;;29.48;37.77;97095.47;4948481;28;20039;-34
2021/06/10 07:25:20;;;;;;;2.90;1.60;;;;;;;29.48;37.74;97093.69;4944319;28;20065;-33
2021/06/10 07:27:46;;;;;;;4.88;1.60;;;;;;;29.48;37.91;97096.31;4946076;28;20478;-27
2021/06/10 07:30:12;;;;;;;3.55;1.63;;;;;;;29.50;37.74;97095.38;4975021;28;20059;-30
2021/06/10 07:32:37;;;;;;;4.22;1.60;;;;;;;29.51;37.99;97102.34;4960802;28;20035;-37
2021/06/10 07:35:03;;;;;;;1.63;1.20;;;;;;;29.53;37.85;97098.72;4975333;28;20035;-36
2021/06/10 07:37:29;;;;;;;5.18;1.75;;;;;;;29.53;37.82;97105.78;4945880;28;20031;-33
2021/06/10 07:39:54;;;;;;;3.80;1.42;;;;;;;29.54;37.77;97103.03;4946759;28;20065;-30
2021/06/10 07:42:20;;;;;;;2.03;1.20;;;;;;;29.55;38.22;97103.88;4948699;28;20034;-36
2021/06/10 07:44:45;;;;;;;4.00;1.63;;;;;;;29.56;38.13;97100.31;4949045;28;20030;-32
2021/06/10 07:47:11;;;;;;;2.08;1.38;;;;;;;29.57;37.98;97107.28;4945831;28;20697;-33
2021/06/10 07:49:36;;;;;;;2.65;1.58;;;;;;;29.58;38.15;97103.69;4946807;28;20042;-33
2021/06/10 07:52:02;;;;;;;1.90;1.23;;;;;;;29.59;37.96;97106.22;4977036;28;20020;-34
2021/06/10 07:54:27;;;;;;;5.88;1.85;;;;;;;29.61;37.87;97103.50;4946714;28;20492;-35
2021/06/10 07:56:53;;;;;;;2.92;1.48;;;;;;;29.62;38.18;97105.19;4945275;28;20822;-32
2021/06/10 07:59:23;;;;;;;5.55;1.42;;;;;;;29.63;37.93;97101.59;4946248;28;20023;-35
2021/06/10 08:01:49;;;;;;;1.35;1.20;;;;;;;29.65;38.24;97104.13;4947218;28;20030;-34
2021/06/10 08:04:14;;;;;;;51.00;5.97;;;;;;;29.64;37.16;97105.09;4945855;28;20082;-36
2021/06/10 08:06:39;;;;;;;23.33;5.35;;;;;;;29.62;36.98;97099.03;4945057;28;20039;-34
2021/06/10 08:09:05;;;;;;;10.93;5.72;;;;;;;29.59;36.55;97105.38;4947580;28;20022;-33
2021/06/10 08:11:31;;;;;;;15.27;5.32;;;;;;;29.55;36.48;97099.44;4945968;28;20047;-37
2021/06/10 08:13:56;;;;;;;14.38;6.28;;;;;;;29.52;36.09;97099.63;4944876;28;20027;-34
2021/06/10 08:16:22;;;;;;;11.80;6.43;;;;;;;29.47;35.92;97096.41;4951134;28;20072;-34
2021/06/10 08:18:48;;;;;;;14.43;6.50;;;;;;;29.41;36.19;97099.47;4947128;28;20547;-30
2021/06/10 08:21:13;;;;;;;12.20;6.22;;;;;;;29.34;36.31;97104.28;4946214;28;20541;-35
2021/06/10 08:23:38;;;;;;;13.70;7.72;;;;;;;29.27;36.52;97095.03;4946127;28;20169;-36
2021/06/10 08:26:06;;;;;;;15.68;6.80;;;;;;;29.20;36.20;97090.16;4944652;28;20042;-35
2021/06/10 08:28:32;;;;;;;11.10;7.22;;;;;;;29.16;36.39;97103.63;4946654;28;20038;-35
2021/06/10 08:30:58;;;;;;;16.02;7.35;;;;;;;29.09;36.59;97097.88;4944745;28;20489;-31
2021/06/10 08:33:23;;;;;;;10.82;7.35;;;;;;;29.03;36.41;97098.28;4946121;28;20039;-33
2021/06/10 08:35:50;;;;;;;9.30;7.28;;;;;;;28.96;36.57;97092.53;4944143;28;20054;-29
2021/06/10 08:38:15;;;;;;;13.27;6.45;;;;;;;28.92;36.59;97097.13;4946360;28;20518;-30
2021/06/10 08:40:41;;;;;;;8.93;5.65;;;;;;;28.90;36.98;97093.75;4946561;28;20062;-37
2021/06/10 08:43:07;;;;;;;10.02;5.35;;;;;;;28.91;36.97;97095.44;4947976;28;20039;-31
2021/06/10 08:45:32;;;;;;;6.43;5.57;;;;;;;28.90;37.01;97091.13;4946524;28;20023;-35
2021/06/10 08:47:58;;;;;;;10.60;5.60;;;;;;;28.94;37.07;97092.63;4976933;28;20281;-31
2021/06/10 08:50:24;;;;;;;12.27;5.45;;;;;;;28.96;36.93;97092.53;4963879;28;20023;-35
2021/06/10 08:52:59;;;;;;;8.25;5.50;;;;;;;28.99;37.24;97091.50;4980808;28;20109;-33
2021/06/10 08:55:25;;;;;;;6.50;4.93;;;;;;;29.02;37.04;97096.59;4962769;28;20054;-34
2021/06/10 08:57:50;;;;;;;11.70;5.22;;;;;;;29.04;37.22;97094.69;4949396;28;20455;-37
2021/06/10 09:00:16;;;;;;;10.23;5.20;;;;;;;29.06;36.90;97088.38;4981472;28;20038;-30
2021/06/10 09:02:49;;;;;;;9.15;5.45;;;;;;;29.11;36.92;97089.88;4949824;28;20027;-36
2021/06/10 09:05:16;;;;;;;7.40;4.88;;;;;;;29.12;36.98;97087.16;4947107;28;20217;-33
2021/06/10 09:07:46;;;;;;;9.43;5.30;;;;;;;29.15;37.04;97092.25;4949401;28;20023;-33
2021/06/10 09:10:12;;;;;;;13.02;4.75;;;;;;;29.17;37.06;97095.63;4947891;28;20034;-37
2021/06/10 09:12:57;;;;;;;9.68;4.80;;;;;;;29.20;37.18;97094.56;4952284;28;20042;-34
2021/06/10 09:15:25;;;;;;;8.70;5.07;;;;;;;29.23;37.09;97104.09;4949034;28;20486;-33
2021/06/10 09:17:51;;;;;;;44.75;5.07;;;;;;;29.24;37.11;97097.88;4979078;28;20031;-36
2021/06/10 09:20:19;;;;;;;38.92;5.15;;;;;;;29.26;37.35;97099.50;4948175;28;20655;-32
2021/06/10 09:22:44;;;;;;;45.33;5.40;;;;;;;29.28;37.05;97099.38;4950275;28;20384;-36
2021/06/10 09:25:11;;;;;;;11.40;5.05;;;;;;;29.29;37.26;97094.00;4980489;28;20023;-35
2021/06/10 09:27:57;;;;;;;19.80;4.60;;;;;;;29.31;37.24;97096.53;4948088;28;20035;-38
2021/06/10 09:30:51;;;;;;;24.33;4.40;;;;;;;29.33;37.30;97089.41;4947000;28;20046;-32
2021/06/10 09:33:21;;;;;;;22.77;4.68;;;;;;;29.34;37.33;97083.16;4949570;28;20043;-36
2021/06/10 09:35:47;;;;;;;34.17;4.65;;;;;;;29.35;37.43;97087.50;4949360;28;20557;-37
2021/06/10 09:38:16;;;;;;;27.05;4.68;;;;;;;29.37;37.51;97093.50;4948063;28;20035;-38
2021/06/10 09:40:41;;;;;;;10.38;4.43;;;;;;;29.38;37.46;97087.31;4950722;28;20618;-33
2021/06/10 09:43:07;;;;;;;10.68;4.50;;;;;;;29.40;37.38;97080.13;4949648;28;20030;-39
2021/06/10 09:45:33;;;;;;;16.20;4.47;;;;;;;29.42;37.36;97093.22;4946437;28;20034;-34
2021/06/10 09:48:04;;;;;;;8.70;4.55;;;;;;;29.43;37.44;97085.22;4948448;28;20904;-41
2021/06/10 09:50:52;;;;;;;14.18;4.65;;;;;;;29.43;37.25;97090.50;4948314;28;20026;-34
2021/06/10 09:53:22;;;;;;;13.07;4.25;;;;;;;29.45;37.21;97085.94;4948796;28;20046;-39
2021/06/10 09:55:52;;;;;;;16.60;4.10;;;;;;;29.46;37.50;97087.66;4962060;28;20053;-37
2021/06/10 09:58:19;;;;;;;13.40;4.57;;;;;;;29.48;37.49;97090.19;4947254;28;20093;-40
2021/06/10 10:00:50;;;;;;;10.02;4.38;;;;;;;29.49;37.53;97083.97;4946714;28;20061;-36
2021/06/10 10:03:42;;;;;;;11.75;4.90;;;;;;;29.48;37.36;97077.84;4947895;28;20841;-35
2021/06/10 10:06:24;;;;;;;15.43;4.88;;;;;;;29.50;37.21;97076.88;4946095;28;20072;-41
2021/06/10 10:09:04;;;;;;;7.70;4.70;;;;;;;29.51;37.16;97076.81;4950228;28;20409;-38
2021/06/10 10:11:32;;;;;;;7.70;4.68;;;;;;;29.51;37.14;97070.66;4949704;28;20044;-39
2021/06/10 10:13:58;;;;;;;10.55;5.28;;;;;;;29.52;37.17;97072.41;4977943;28;20034;-35
2021/06/10 10:16:34;;;;;;;9.57;5.53;;;;;;;29.51;37.38;97070.66;4980494;28;20050;-39
2021/06/10 10:19:03;;;;;;;7.90;5.57;;;;;;;29.52;37.28;97073.22;4948696;28;20034;-36
2021/06/10 10:21:30;;;;;;;8.35;6.07;;;;;;;29.53;37.46;97068.81;4947627;28;20122;-41
2021/06/10 10:24:00;;;;;;;10.93;7.53;;;;;;;29.53;37.04;97063.53;4945803;28;20073;-38
2021/06/10 10:26:25;;;;;;;9.02;6.35;;;;;;;29.54;36.96;97065.22;4943309;28;20031;-37
2021/06/10 10:28:50;;;;;;;13.43;5.70;;;;;;;29.53;37.04;97059.13;4946833;28;20233;-40
2021/06/10 10:31:16;;;;;;;11.15;5.78;;;;;;;29.54;37.30;97059.94;4945802;28;20402;-40
2021/06/10 10:33:45;;;;;;;10.43;6.10;;;;;;;29.55;37.26;97066.91;4947740;28;20444;-38
2021/06/10 10:36:31;;;;;;;10.05;5.90;;;;;;;29.56;37.28;97058.06;4944857;28;20398;-39
2021/06/10 10:39:04;;;;;;;9.50;5.47;;;;;;;29.55;37.22;97064.25;4949324;28;20568;-41
2021/06/10 10:41:29;;;;;;;8.57;5.22;;;;;;;29.55;37.33;97058.97;4950335;28;20058;-38
2021/06/10 10:44:07;;;;;;;12.60;6.15;;;;;;;29.56;37.48;97058.88;4947569;28;21955;-37
2021/06/10 10:46:32;;;;;;;8.57;5.97;;;;;;;29.56;37.59;97052.78;4959543;28;20027;-40
2021/06/10 10:48:59;;;;;;;11.65;6.10;;;;;;;29.57;37.34;97055.31;4950211;28;20105;-37
2021/06/10 10:51:37;;;;;;;12.40;6.03;;;;;;;29.58;37.45;97042.94;4949113;28;20054;-38
2021/06/10 10:54:11;;;;;;;13.77;5.82;;;;;;;29.58;37.66;97035.88;4952311;28;20031;-41
2021/06/10 10:56:41;;;;;;;9.20;5.50;;;;;;;29.60;38.08;97038.44;4950504;28;20114;-38
2021/06/10 10:59:19;;;;;;;14.75;6.40;;;;;;;29.60;37.79;97038.44;4946991;28;20041;-38
2021/06/10 11:02:06;;;;;;;11.07;6.20;;;;;;;29.63;37.62;97043.50;4945738;28;20027;-33
2021/06/10 11:04:57;;;;;;;12.73;6.20;;;;;;;29.63;37.95;97043.50;4944144;28;20235;-36
2021/06/10 11:07:38;;;;;;;11.40;6.60;;;;;;;29.61;37.69;97042.75;4945319;28;20123;-36
2021/06/10 11:10:07;;;;;;;12.82;5.97;;;;;;;29.59;38.13;97037.56;4947191;28;20038;-38
2021/06/10 11:12:42;;;;;;;39.88;12.00;;;;;;;29.61;38.35;97034.84;4950708;28;20501;-37
2021/06/10 11:15:22;;;;;;;37.20;11.38;;;;;;;29.65;38.52;97028.41;4945662;28;22500;-39
2021/06/10 11:17:50;;;;;;;24.33;8.00;;;;;;;29.72;38.33;97027.03;4961482;28;20129;-37
2021/06/10 11:20:16;;;;;;;16.75;7.45;;;;;;;29.80;38.15;97017.78;4944737;28;20205;-37
2021/06/10 11:22:41;;;;;;;26.17;8.07;;;;;;;29.89;38.17;97022.44;4978587;28;20031;-36
2021/06/10 11:25:08;;;;;;;18.38;7.20;;;;;;;29.99;38.16;97034.09;4948614;28;20035;-32
2021/06/10 11:27:38;;;;;;;16.88;7.35;;;;;;;30.11;37.72;97036.88;4947999;28;20030;-34
2021/06/10 11:30:10;;;;;;;12.23;7.00;;;;;;;30.22;37.74;97031.75;4948652;28;20030;-34
2021/06/10 11:32:54;;;;;;;17.30;6.93;;;;;;;30.37;37.22;97031.63;4947862;28;20031;-39